sensor_id;sensor_type;location;lat;lon;timestamp;P1;durP1;ratioP1;P2;durP2;ratioP2
17193;SDS011;8713;48.388;10.928;2022-07-19T05:58:49;5.60;;;2.10;;
17193;SDS011;8713;48.388;10.928;2022-07-19T05:59:59;3.60;;;2.30;;
17193;SDS011;8713;48.388;10.928;2022-07-19T06:01:08;5.05;;;2.10;;
17193;SDS011;8713;48.388;10.928;2022-07-19T06:02:27;3.45;;;1.90;;
17193;SDS011;8713;48.388;10.928;2022-07-19T06:03:36;2.92;;;2.13;;
17193;SDS011;8713;48.388;10.928;2022-07-19T06:04:46;5.63;;;2.17;;
17193;SDS011;8713;48.388;10.928;2022-07-19T06:05:55;5.90;;;2.38;;
17193;SDS011;8713;48.388;10.928;2022-07-19T06:07:05;3.65;;;2.05;;
17193;SDS011;8713;48.388;10.928;2022-07-19T06:08:14;3.55;;;2.30;;
17193;SDS011;8713;48.388;10.928;2022-07-19T06:09:24;3.80;;;1.98;;
17193;SDS011;8713;48.388;10.928;2022-07-19T06:10:33;3.85;;;1.95;;
17193;SDS011;8713;48.388;10.928;2022-07-19T06:11:45;2.58;;;1.90;;
17193;SDS011;8713;48.388;10.928;2022-07-19T06:12:55;3.13;;;2.20;;
17193;SDS011;8713;48.388;10.928;2022-07-19T06:14:11;4.00;;;1.92;;
17193;SDS011;8713;48.388;10.928;2022-07-19T06:15:21;3.38;;;2.10;;
17193;SDS011;8713;48.388;10.928;2022-07-19T06:16:30;5.82;;;2.25;;
17193;SDS011;8713;48.388;10.928;2022-07-19T06:17:40;4.60;;;1.88;;
17193;SDS011;8713;48.388;10.928;2022-07-19T06:18:49;6.22;;;2.17;;
17193;SDS011;8713;48.388;10.928;2022-07-19T06:19:58;4.32;;;2.22;;
17193;SDS011;8713;48.388;10.928;2022-07-19T06:21:09;3.83;;;2.10;;
17193;SDS011;8713;48.388;10.928;2022-07-19T06:22:24;5.25;;;2.05;;
17193;SDS011;8713;48.388;10.928;2022-07-19T06:23:34;2.60;;;1.80;;
17193;SDS011;8713;48.388;10.928;2022-07-19T06:24:43;2.60;;;1.95;;
17193;SDS011;8713;48.388;10.928;2022-07-19T06:25:53;2.97;;;2.03;;
17193;SDS011;8713;48.388;10.928;2022-07-19T06:27:02;3.47;;;1.90;;
17193;SDS011;8713;48.388;10.928;2022-07-19T06:28:12;3.10;;;1.70;;
17193;SDS011;8713;48.388;10.928;2022-07-19T06:29:21;2.67;;;1.80;;
17193;SDS011;8713;48.388;10.928;2022-07-19T06:30:31;3.50;;;1.88;;
17193;SDS011;8713;48.388;10.928;2022-07-19T06:31:40;2.90;;;1.80;;
17193;SDS011;8713;48.388;10.928;2022-07-19T06:32:50;5.82;;;2.20;;
17193;SDS011;8713;48.388;10.928;2022-07-19T06:33:59;2.40;;;1.92;;
17193;SDS011;8713;48.388;10.928;2022-07-19T06:35:09;2.35;;;1.60;;
17193;SDS011;8713;48.388;10.928;2022-07-19T06:36:19;7.13;;;2.22;;
17193;SDS011;8713;48.388;10.928;2022-07-19T06:37:28;3.38;;;1.90;;
17193;SDS011;8713;48.388;10.928;2022-07-19T06:38:38;3.00;;;1.70;;
17193;SDS011;8713;48.388;10.928;2022-07-19T06:39:48;4.30;;;1.80;;
17193;SDS011;8713;48.388;10.928;2022-07-19T06:40:57;7.15;;;1.80;;
17193;SDS011;8713;48.388;10.928;2022-07-19T06:42:07;4.10;;;1.70;;
17193;SDS011;8713;48.388;10.928;2022-07-19T06:43:17;7.70;;;1.85;;
17193;SDS011;8713;48.388;10.928;2022-07-19T06:44:26;6.03;;;1.80;;
17193;SDS011;8713;48.388;10.928;2022-07-19T06:45:36;2.78;;;1.73;;
17193;SDS011;8713;48.388;10.928;2022-07-19T06:46:46;4.45;;;1.80;;
17193;SDS011;8713;48.388;10.928;2022-07-19T06:47:55;3.35;;;1.92;;
17193;SDS011;8713;48.388;10.928;2022-07-19T06:49:05;4.10;;;1.85;;
17193;SDS011;8713;48.388;10.928;2022-07-19T06:50:14;2.90;;;1.83;;
17193;SDS011;8713;48.388;10.928;2022-07-19T06:51:24;2.75;;;1.80;;
17193;SDS011;8713;48.388;10.928;2022-07-19T06:52:33;3.63;;;1.92;;
17193;SDS011;8713;48.388;10.928;2022-07-19T06:53:43;2.33;;;1.70;;
17193;SDS011;8713;48.388;10.928;2022-07-19T06:54:52;3.83;;;1.80;;
17193;SDS011;8713;48.388;10.928;2022-07-19T06:56:02;3.72;;;1.65;;
17193;SDS011;8713;48.388;10.928;2022-07-19T06:57:12;3.47;;;1.58;;
17193;SDS011;8713;48.388;10.928;2022-07-19T06:58:21;3.78;;;1.67;;
17193;SDS011;8713;48.388;10.928;2022-07-19T06:59:31;2.85;;;1.80;;
17193;SDS011;8713;48.388;10.928;2022-07-19T07:00:40;5.78;;;1.55;;
17193;SDS011;8713;48.388;10.928;2022-07-19T07:01:49;5.20;;;1.80;;
17193;SDS011;8713;48.388;10.928;2022-07-19T07:02:59;3.38;;;1.52;;
17193;SDS011;8713;48.388;10.928;2022-07-19T07:04:08;4.03;;;1.80;;
17193;SDS011;8713;48.388;10.928;2022-07-19T07:05:18;3.58;;;1.80;;
17193;SDS011;8713;48.388;10.928;2022-07-19T07:06:27;4.68;;;1.92;;
17193;SDS011;8713;48.388;10.928;2022-07-19T07:07:37;3.70;;;1.60;;
17193;SDS011;8713;48.388;10.928;2022-07-19T07:08:48;3.28;;;1.60;;
17193;SDS011;8713;48.388;10.928;2022-07-19T07:09:57;2.65;;;1.67;;
17193;SDS011;8713;48.388;10.928;2022-07-19T07:11:07;3.28;;;1.55;;
17193;SDS011;8713;48.388;10.928;2022-07-19T07:12:16;2.03;;;1.60;;
17193;SDS011;8713;48.388;10.928;2022-07-19T07:13:26;1.88;;;1.60;;
17193;SDS011;8713;48.388;10.928;2022-07-19T07:14:35;3.05;;;1.85;;
17193;SDS011;8713;48.388;10.928;2022-07-19T07:15:44;3.00;;;1.58;;
17193;SDS011;8713;48.388;10.928;2022-07-19T07:16:54;2.35;;;1.48;;
17193;SDS011;8713;48.388;10.928;2022-07-19T07:18:03;2.30;;;1.58;;
17193;SDS011;8713;48.388;10.928;2022-07-19T07:19:14;1.95;;;1.50;;
17193;SDS011;8713;48.388;10.928;2022-07-19T07:20:23;3.53;;;1.35;;
17193;SDS011;8713;48.388;10.928;2022-07-19T07:21:33;2.25;;;1.60;;
17193;SDS011;8713;48.388;10.928;2022-07-19T07:22:43;3.33;;;1.60;;
17193;SDS011;8713;48.388;10.928;2022-07-19T07:23:53;3.72;;;1.65;;
17193;SDS011;8713;48.388;10.928;2022-07-19T07:25:03;3.22;;;1.60;;
17193;SDS011;8713;48.388;10.928;2022-07-19T07:26:13;2.53;;;1.38;;
17193;SDS011;8713;48.388;10.928;2022-07-19T07:27:23;4.15;;;1.50;;
17193;SDS011;8713;48.388;10.928;2022-07-19T07:28:33;3.38;;;1.42;;
17193;SDS011;8713;48.388;10.928;2022-07-19T07:29:42;3.58;;;1.50;;
17193;SDS011;8713;48.388;10.928;2022-07-19T07:30:52;3.53;;;1.70;;
17193;SDS011;8713;48.388;10.928;2022-07-19T07:32:02;4.60;;;1.58;;
17193;SDS011;8713;48.388;10.928;2022-07-19T07:33:12;4.28;;;1.58;;
17193;SDS011;8713;48.388;10.928;2022-07-19T07:34:21;4.68;;;1.50;;
17193;SDS011;8713;48.388;10.928;2022-07-19T07:35:31;2.17;;;1.30;;
17193;SDS011;8713;48.388;10.928;2022-07-19T07:36:40;3.88;;;1.33;;
17193;SDS011;8713;48.388;10.928;2022-07-19T07:37:50;2.33;;;1.45;;
17193;SDS011;8713;48.388;10.928;2022-07-19T07:38:59;5.97;;;1.70;;
17193;SDS011;8713;48.388;10.928;2022-07-19T07:40:09;1.88;;;1.50;;
17193;SDS011;8713;48.388;10.928;2022-07-19T07:41:19;2.90;;;1.25;;
17193;SDS011;8713;48.388;10.928;2022-07-19T07:42:30;4.93;;;1.55;;
17193;SDS011;8713;48.388;10.928;2022-07-19T07:43:40;2.40;;;1.70;;
17193;SDS011;8713;48.388;10.928;2022-07-19T07:44:50;2.47;;;1.55;;
17193;SDS011;8713;48.388;10.928;2022-07-19T07:46:00;2.35;;;1.30;;
17193;SDS011;8713;48.388;10.928;2022-07-19T07:47:09;1.60;;;1.30;;
17193;SDS011;8713;48.388;10.928;2022-07-19T07:48:19;4.05;;;1.60;;
17193;SDS011;8713;48.388;10.928;2022-07-19T07:49:28;3.67;;;1.40;;
17193;SDS011;8713;48.388;10.928;2022-07-19T07:50:38;2.03;;;1.40;;
17193;SDS011;8713;48.388;10.928;2022-07-19T07:51:48;6.32;;;1.58;;
17193;SDS011;8713;48.388;10.928;2022-07-19T07:52:57;2.63;;;1.50;;
17193;SDS011;8713;48.388;10.928;2022-07-19T07:54:07;3.50;;;1.60;;
17193;SDS011;8713;48.388;10.928;2022-07-19T07:55:17;5.18;;;1.35;;
17193;SDS011;8713;48.388;10.928;2022-07-19T07:56:26;2.95;;;1.38;;
17193;SDS011;8713;48.388;10.928;2022-07-19T07:57:36;4.03;;;1.88;;
17193;SDS011;8713;48.388;10.928;2022-07-19T07:58:45;2.70;;;1.40;;
17193;SDS011;8713;48.388;10.928;2022-07-19T07:59:54;4.53;;;1.52;;
17193;SDS011;8713;48.388;10.928;2022-07-19T08:01:04;3.40;;;1.30;;
17193;SDS011;8713;48.388;10.928;2022-07-19T08:02:13;3.47;;;1.50;;
17193;SDS011;8713;48.388;10.928;2022-07-19T08:03:23;7.38;;;1.52;;
17193;SDS011;8713;48.388;10.928;2022-07-19T08:04:32;3.55;;;1.48;;
17193;SDS011;8713;48.388;10.928;2022-07-19T08:05:42;4.88;;;1.70;;
17193;SDS011;8713;48.388;10.928;2022-07-19T08:06:56;4.78;;;1.63;;
17193;SDS011;8713;48.388;10.928;2022-07-19T08:08:05;3.55;;;1.58;;
17193;SDS011;8713;48.388;10.928;2022-07-19T08:09:15;4.10;;;1.40;;
17193;SDS011;8713;48.388;10.928;2022-07-19T08:10:25;2.20;;;1.35;;
17193;SDS011;8713;48.388;10.928;2022-07-19T08:11:37;5.18;;;1.75;;
17193;SDS011;8713;48.388;10.928;2022-07-19T08:12:46;2.08;;;1.50;;
17193;SDS011;8713;48.388;10.928;2022-07-19T08:13:56;1.80;;;1.38;;
17193;SDS011;8713;48.388;10.928;2022-07-19T08:15:05;2.08;;;1.27;;
17193;SDS011;8713;48.388;10.928;2022-07-19T08:16:16;3.08;;;1.65;;
17193;SDS011;8713;48.388;10.928;2022-07-19T08:17:25;2.08;;;1.45;;
17193;SDS011;8713;48.388;10.928;2022-07-19T08:18:34;4.55;;;1.40;;
17193;SDS011;8713;48.388;10.928;2022-07-19T08:19:44;2.47;;;1.58;;
17193;SDS011;8713;48.388;10.928;2022-07-19T08:20:54;5.07;;;1.60;;
17193;SDS011;8713;48.388;10.928;2022-07-19T08:22:03;3.08;;;1.50;;
17193;SDS011;8713;48.388;10.928;2022-07-19T08:23:12;2.10;;;1.27;;
17193;SDS011;8713;48.388;10.928;2022-07-19T08:24:22;2.30;;;1.45;;
17193;SDS011;8713;48.388;10.928;2022-07-19T08:25:31;1.95;;;1.42;;
17193;SDS011;8713;48.388;10.928;2022-07-19T08:26:43;2.72;;;1.20;;
17193;SDS011;8713;48.388;10.928;2022-07-19T08:27:53;2.65;;;1.50;;
17193;SDS011;8713;48.388;10.928;2022-07-19T08:29:02;2.00;;;1.40;;
17193;SDS011;8713;48.388;10.928;2022-07-19T08:30:12;2.25;;;1.40;;
17193;SDS011;8713;48.388;10.928;2022-07-19T08:31:22;4.13;;;1.60;;
17193;SDS011;8713;48.388;10.928;2022-07-19T08:32:32;1.63;;;1.30;;
17193;SDS011;8713;48.388;10.928;2022-07-19T08:33:41;1.92;;;1.45;;
17193;SDS011;8713;48.388;10.928;2022-07-19T08:34:51;7.38;;;1.90;;
17193;SDS011;8713;48.388;10.928;2022-07-19T08:36:00;3.00;;;1.50;;
17193;SDS011;8713;48.388;10.928;2022-07-19T08:37:10;1.80;;;1.23;;
17193;SDS011;8713;48.388;10.928;2022-07-19T08:38:19;2.30;;;1.40;;
17193;SDS011;8713;48.388;10.928;2022-07-19T08:39:29;4.38;;;1.30;;
17193;SDS011;8713;48.388;10.928;2022-07-19T08:40:40;1.60;;;1.33;;
17193;SDS011;8713;48.388;10.928;2022-07-19T08:41:51;3.35;;;1.83;;
17193;SDS011;8713;48.388;10.928;2022-07-19T08:43:02;5.50;;;1.33;;
17193;SDS011;8713;48.388;10.928;2022-07-19T08:44:14;1.33;;;1.15;;
17193;SDS011;8713;48.388;10.928;2022-07-19T08:45:25;2.70;;;1.30;;
17193;SDS011;8713;48.388;10.928;2022-07-19T08:46:41;5.47;;;1.52;;
17193;SDS011;8713;48.388;10.928;2022-07-19T08:47:50;3.13;;;1.27;;
17193;SDS011;8713;48.388;10.928;2022-07-19T08:49:00;5.72;;;1.45;;
17193;SDS011;8713;48.388;10.928;2022-07-19T08:50:10;2.80;;;1.50;;
17193;SDS011;8713;48.388;10.928;2022-07-19T08:51:20;2.70;;;1.48;;
17193;SDS011;8713;48.388;10.928;2022-07-19T08:52:31;3.15;;;1.60;;
17193;SDS011;8713;48.388;10.928;2022-07-19T08:53:41;4.63;;;1.38;;
17193;SDS011;8713;48.388;10.928;2022-07-19T08:54:52;2.85;;;1.40;;
17193;SDS011;8713;48.388;10.928;2022-07-19T08:56:04;4.72;;;2.00;;
17193;SDS011;8713;48.388;10.928;2022-07-19T08:57:34;5.78;;;1.52;;
17193;SDS011;8713;48.388;10.928;2022-07-19T08:59:02;4.60;;;1.40;;
17193;SDS011;8713;48.388;10.928;2022-07-19T09:00:12;3.20;;;1.23;;
17193;SDS011;8713;48.388;10.928;2022-07-19T09:01:23;2.45;;;1.40;;
17193;SDS011;8713;48.388;10.928;2022-07-19T09:02:32;3.15;;;1.30;;
17193;SDS011;8713;48.388;10.928;2022-07-19T09:05:22;2.75;;;1.50;;
17193;SDS011;8713;48.388;10.928;2022-07-19T09:08:11;7.95;;;1.70;;
17193;SDS011;8713;48.388;10.928;2022-07-19T09:09:26;3.83;;;1.27;;
17193;SDS011;8713;48.388;10.928;2022-07-19T09:10:39;2.55;;;1.30;;
17193;SDS011;8713;48.388;10.928;2022-07-19T09:12:13;2.80;;;1.35;;
17193;SDS011;8713;48.388;10.928;2022-07-19T09:13:22;4.80;;;1.42;;
17193;SDS011;8713;48.388;10.928;2022-07-19T09:14:34;2.28;;;1.40;;
17193;SDS011;8713;48.388;10.928;2022-07-19T09:15:49;3.28;;;1.50;;
17193;SDS011;8713;48.388;10.928;2022-07-19T09:17:01;3.22;;;1.42;;
17193;SDS011;8713;48.388;10.928;2022-07-19T09:18:27;5.78;;;1.50;;
17193;SDS011;8713;48.388;10.928;2022-07-19T09:19:40;3.60;;;1.48;;
17193;SDS011;8713;48.388;10.928;2022-07-19T09:20:55;2.63;;;1.67;;
17193;SDS011;8713;48.388;10.928;2022-07-19T09:22:18;4.10;;;1.60;;
17193;SDS011;8713;48.388;10.928;2022-07-19T09:23:28;4.32;;;1.20;;
17193;SDS011;8713;48.388;10.928;2022-07-19T09:24:39;4.72;;;1.13;;
17193;SDS011;8713;48.388;10.928;2022-07-19T09:25:52;4.47;;;1.40;;
17193;SDS011;8713;48.388;10.928;2022-07-19T09:28:18;4.40;;;1.30;;
17193;SDS011;8713;48.388;10.928;2022-07-19T09:29:29;3.67;;;1.20;;
17193;SDS011;8713;48.388;10.928;2022-07-19T09:30:42;3.92;;;1.40;;
17193;SDS011;8713;48.388;10.928;2022-07-19T09:31:57;1.30;;;1.20;;
17193;SDS011;8713;48.388;10.928;2022-07-19T09:33:21;3.28;;;1.50;;
17193;SDS011;8713;48.388;10.928;2022-07-19T09:34:33;2.97;;;1.35;;
17193;SDS011;8713;48.388;10.928;2022-07-19T09:35:52;2.80;;;1.35;;
17193;SDS011;8713;48.388;10.928;2022-07-19T09:37:19;4.28;;;1.40;;
17193;SDS011;8713;48.388;10.928;2022-07-19T09:38:36;4.43;;;1.27;;
17193;SDS011;8713;48.388;10.928;2022-07-19T09:39:50;3.72;;;1.35;;
17193;SDS011;8713;48.388;10.928;2022-07-19T09:41:17;4.28;;;1.48;;
17193;SDS011;8713;48.388;10.928;2022-07-19T09:43:58;3.63;;;1.50;;
17193;SDS011;8713;48.388;10.928;2022-07-19T09:45:10;3.28;;;1.25;;
17193;SDS011;8713;48.388;10.928;2022-07-19T09:46:37;3.65;;;1.30;;
17193;SDS011;8713;48.388;10.928;2022-07-19T09:47:48;4.00;;;1.70;;
17193;SDS011;8713;48.388;10.928;2022-07-19T09:49:12;3.70;;;1.50;;
17193;SDS011;8713;48.388;10.928;2022-07-19T09:50:24;7.97;;;1.80;;
17193;SDS011;8713;48.388;10.928;2022-07-19T09:51:34;3.28;;;1.40;;
17193;SDS011;8713;48.388;10.928;2022-07-19T09:52:50;4.22;;;1.80;;
17193;SDS011;8713;48.388;10.928;2022-07-19T09:54:00;4.35;;;1.40;;
17193;SDS011;8713;48.388;10.928;2022-07-19T09:55:12;6.28;;;1.42;;
17193;SDS011;8713;48.388;10.928;2022-07-19T09:56:22;3.22;;;1.70;;
17193;SDS011;8713;48.388;10.928;2022-07-19T09:57:35;5.45;;;1.60;;
17193;SDS011;8713;48.388;10.928;2022-07-19T09:58:48;4.90;;;1.45;;
17193;SDS011;8713;48.388;10.928;2022-07-19T09:59:57;5.28;;;1.50;;
17193;SDS011;8713;48.388;10.928;2022-07-19T10:01:07;7.88;;;1.38;;
17193;SDS011;8713;48.388;10.928;2022-07-19T10:02:18;3.28;;;1.30;;
17193;SDS011;8713;48.388;10.928;2022-07-19T10:03:28;2.10;;;1.30;;
17193;SDS011;8713;48.388;10.928;2022-07-19T10:04:38;5.60;;;1.48;;
17193;SDS011;8713;48.388;10.928;2022-07-19T10:05:47;2.90;;;1.40;;
17193;SDS011;8713;48.388;10.928;2022-07-19T10:06:57;2.03;;;1.27;;
17193;SDS011;8713;48.388;10.928;2022-07-19T10:08:06;3.53;;;1.35;;
17193;SDS011;8713;48.388;10.928;2022-07-19T10:09:17;3.22;;;1.50;;
17193;SDS011;8713;48.388;10.928;2022-07-19T10:10:28;3.63;;;1.40;;
17193;SDS011;8713;48.388;10.928;2022-07-19T10:11:39;3.55;;;1.65;;
17193;SDS011;8713;48.388;10.928;2022-07-19T10:12:49;3.78;;;1.67;;
17193;SDS011;8713;48.388;10.928;2022-07-19T10:14:00;2.22;;;1.52;;
17193;SDS011;8713;48.388;10.928;2022-07-19T10:15:11;3.90;;;1.40;;
17193;SDS011;8713;48.388;10.928;2022-07-19T10:16:27;3.58;;;1.42;;
17193;SDS011;8713;48.388;10.928;2022-07-19T10:18:16;2.47;;;1.40;;
17193;SDS011;8713;48.388;10.928;2022-07-19T10:20:52;3.75;;;1.42;;
17193;SDS011;8713;48.388;10.928;2022-07-19T10:22:02;5.53;;;1.58;;
17193;SDS011;8713;48.388;10.928;2022-07-19T10:23:12;3.50;;;1.50;;
17193;SDS011;8713;48.388;10.928;2022-07-19T10:24:41;2.22;;;1.20;;
17193;SDS011;8713;48.388;10.928;2022-07-19T10:25:55;3.00;;;1.33;;
17193;SDS011;8713;48.388;10.928;2022-07-19T10:27:04;4.32;;;1.40;;
17193;SDS011;8713;48.388;10.928;2022-07-19T10:28:27;2.10;;;1.40;;
17193;SDS011;8713;48.388;10.928;2022-07-19T10:30:38;2.53;;;1.40;;
17193;SDS011;8713;48.388;10.928;2022-07-19T10:32:52;5.47;;;1.58;;
17193;SDS011;8713;48.388;10.928;2022-07-19T10:34:05;8.38;;;1.70;;
17193;SDS011;8713;48.388;10.928;2022-07-19T10:36:39;2.28;;;1.38;;
17193;SDS011;8713;48.388;10.928;2022-07-19T10:39:22;3.00;;;1.48;;
17193;SDS011;8713;48.388;10.928;2022-07-19T10:40:48;2.53;;;1.23;;
17193;SDS011;8713;48.388;10.928;2022-07-19T10:42:12;2.72;;;1.27;;
17193;SDS011;8713;48.388;10.928;2022-07-19T10:43:30;5.38;;;1.52;;
17193;SDS011;8713;48.388;10.928;2022-07-19T10:47:13;5.55;;;1.58;;
17193;SDS011;8713;48.388;10.928;2022-07-19T10:48:35;2.33;;;1.55;;
17193;SDS011;8713;48.388;10.928;2022-07-19T10:50:01;4.20;;;1.45;;
17193;SDS011;8713;48.388;10.928;2022-07-19T10:52:40;2.75;;;1.48;;
17193;SDS011;8713;48.388;10.928;2022-07-19T10:53:58;2.78;;;1.45;;
17193;SDS011;8713;48.388;10.928;2022-07-19T10:56:38;2.53;;;1.30;;
17193;SDS011;8713;48.388;10.928;2022-07-19T10:59:15;1.60;;;1.10;;
17193;SDS011;8713;48.388;10.928;2022-07-19T11:00:25;3.58;;;1.60;;
17193;SDS011;8713;48.388;10.928;2022-07-19T11:01:38;4.43;;;1.40;;
17193;SDS011;8713;48.388;10.928;2022-07-19T11:04:31;3.10;;;1.60;;
17193;SDS011;8713;48.388;10.928;2022-07-19T11:05:48;1.35;;;1.20;;
17193;SDS011;8713;48.388;10.928;2022-07-19T11:07:15;4.65;;;1.63;;
17193;SDS011;8713;48.388;10.928;2022-07-19T11:08:33;1.95;;;1.27;;
17193;SDS011;8713;48.388;10.928;2022-07-19T11:09:45;4.25;;;1.30;;
17193;SDS011;8713;48.388;10.928;2022-07-19T11:13:34;2.30;;;1.27;;
17193;SDS011;8713;48.388;10.928;2022-07-19T11:14:45;2.88;;;1.60;;
17193;SDS011;8713;48.388;10.928;2022-07-19T11:15:55;2.63;;;1.33;;
17193;SDS011;8713;48.388;10.928;2022-07-19T11:17:05;4.68;;;1.73;;
17193;SDS011;8713;48.388;10.928;2022-07-19T11:18:15;1.45;;;1.15;;
17193;SDS011;8713;48.388;10.928;2022-07-19T11:19:25;3.88;;;1.48;;
17193;SDS011;8713;48.388;10.928;2022-07-19T11:20:35;1.60;;;1.20;;
17193;SDS011;8713;48.388;10.928;2022-07-19T11:21:45;3.65;;;1.40;;
17193;SDS011;8713;48.388;10.928;2022-07-19T11:22:56;4.30;;;1.42;;
17193;SDS011;8713;48.388;10.928;2022-07-19T11:24:06;4.00;;;1.45;;
17193;SDS011;8713;48.388;10.928;2022-07-19T11:25:17;2.70;;;1.45;;
17193;SDS011;8713;48.388;10.928;2022-07-19T11:26:45;2.55;;;1.60;;
17193;SDS011;8713;48.388;10.928;2022-07-19T11:27:55;5.43;;;1.52;;
17193;SDS011;8713;48.388;10.928;2022-07-19T11:29:05;3.03;;;1.30;;
17193;SDS011;8713;48.388;10.928;2022-07-19T11:30:14;3.25;;;1.52;;
17193;SDS011;8713;48.388;10.928;2022-07-19T11:31:24;5.85;;;1.40;;
17193;SDS011;8713;48.388;10.928;2022-07-19T11:32:33;2.17;;;1.60;;
17193;SDS011;8713;48.388;10.928;2022-07-19T11:33:44;6.25;;;1.40;;
17193;SDS011;8713;48.388;10.928;2022-07-19T11:34:56;2.10;;;1.38;;
17193;SDS011;8713;48.388;10.928;2022-07-19T11:36:10;4.47;;;1.35;;
17193;SDS011;8713;48.388;10.928;2022-07-19T11:37:28;2.05;;;1.40;;
17193;SDS011;8713;48.388;10.928;2022-07-19T11:38:44;1.52;;;1.40;;
17193;SDS011;8713;48.388;10.928;2022-07-19T11:39:56;1.90;;;1.50;;
17193;SDS011;8713;48.388;10.928;2022-07-19T11:41:16;3.53;;;1.50;;
17193;SDS011;8713;48.388;10.928;2022-07-19T11:42:42;3.58;;;1.65;;
17193;SDS011;8713;48.388;10.928;2022-07-19T11:43:56;2.58;;;1.42;;
17193;SDS011;8713;48.388;10.928;2022-07-19T11:45:16;2.08;;;1.30;;
17193;SDS011;8713;48.388;10.928;2022-07-19T11:46:30;2.42;;;1.35;;
17193;SDS011;8713;48.388;10.928;2022-07-19T11:47:49;2.90;;;1.40;;
17193;SDS011;8713;48.388;10.928;2022-07-19T11:49:02;2.30;;;1.55;;
17193;SDS011;8713;48.388;10.928;2022-07-19T11:50:17;5.68;;;2.00;;
17193;SDS011;8713;48.388;10.928;2022-07-19T11:51:29;2.95;;;1.67;;
17193;SDS011;8713;48.388;10.928;2022-07-19T11:52:42;5.13;;;1.45;;
17193;SDS011;8713;48.388;10.928;2022-07-19T11:54:03;2.45;;;1.48;;
17193;SDS011;8713;48.388;10.928;2022-07-19T11:55:15;7.43;;;1.55;;
17193;SDS011;8713;48.388;10.928;2022-07-19T11:56:28;4.07;;;1.40;;
17193;SDS011;8713;48.388;10.928;2022-07-19T11:57:39;3.97;;;1.50;;
17193;SDS011;8713;48.388;10.928;2022-07-19T11:58:49;2.67;;;1.40;;
17193;SDS011;8713;48.388;10.928;2022-07-19T12:00:01;3.15;;;1.73;;
17193;SDS011;8713;48.388;10.928;2022-07-19T12:01:11;2.28;;;1.42;;
17193;SDS011;8713;48.388;10.928;2022-07-19T12:02:20;2.80;;;1.88;;
17193;SDS011;8713;48.388;10.928;2022-07-19T12:03:30;5.10;;;1.80;;
17193;SDS011;8713;48.388;10.928;2022-07-19T12:04:39;2.03;;;1.52;;
17193;SDS011;8713;48.388;10.928;2022-07-19T12:05:57;5.70;;;2.15;;
17193;SDS011;8713;48.388;10.928;2022-07-19T12:07:09;4.32;;;1.95;;
17193;SDS011;8713;48.388;10.928;2022-07-19T12:08:19;4.88;;;2.20;;
17193;SDS011;8713;48.388;10.928;2022-07-19T12:09:29;5.32;;;2.00;;
17193;SDS011;8713;48.388;10.928;2022-07-19T12:10:42;5.05;;;2.22;;
17193;SDS011;8713;48.388;10.928;2022-07-19T12:11:55;4.50;;;2.45;;
17193;SDS011;8713;48.388;10.928;2022-07-19T12:13:07;6.25;;;2.10;;
17193;SDS011;8713;48.388;10.928;2022-07-19T12:14:22;2.90;;;2.00;;
17193;SDS011;8713;48.388;10.928;2022-07-19T12:15:51;3.55;;;2.15;;
17193;SDS011;8713;48.388;10.928;2022-07-19T12:17:09;3.72;;;1.88;;
17193;SDS011;8713;48.388;10.928;2022-07-19T12:19:00;4.00;;;1.70;;
17193;SDS011;8713;48.388;10.928;2022-07-19T12:20:09;2.40;;;1.77;;
17193;SDS011;8713;48.388;10.928;2022-07-19T12:22:47;4.43;;;2.45;;
17193;SDS011;8713;48.388;10.928;2022-07-19T12:24:16;3.95;;;2.42;;
17193;SDS011;8713;48.388;10.928;2022-07-19T12:25:36;3.28;;;2.10;;
17193;SDS011;8713;48.388;10.928;2022-07-19T12:27:05;4.55;;;2.60;;
17193;SDS011;8713;48.388;10.928;2022-07-19T12:28:24;4.93;;;2.55;;
17193;SDS011;8713;48.388;10.928;2022-07-19T12:29:36;4.97;;;2.40;;
17193;SDS011;8713;48.388;10.928;2022-07-19T12:31:01;4.88;;;2.53;;
17193;SDS011;8713;48.388;10.928;2022-07-19T12:32:16;3.90;;;2.28;;
17193;SDS011;8713;48.388;10.928;2022-07-19T12:33:35;4.63;;;2.53;;
17193;SDS011;8713;48.388;10.928;2022-07-19T12:35:58;7.35;;;2.78;;
17193;SDS011;8713;48.388;10.928;2022-07-19T12:37:27;3.63;;;2.60;;
17193;SDS011;8713;48.388;10.928;2022-07-19T12:39:03;5.70;;;2.38;;
17193;SDS011;8713;48.388;10.928;2022-07-19T12:40:20;5.50;;;2.65;;
17193;SDS011;8713;48.388;10.928;2022-07-19T12:41:31;5.55;;;2.78;;
17193;SDS011;8713;48.388;10.928;2022-07-19T12:42:46;7.05;;;3.20;;
17193;SDS011;8713;48.388;10.928;2022-07-19T12:43:58;9.27;;;2.58;;
17193;SDS011;8713;48.388;10.928;2022-07-19T12:45:12;4.15;;;2.42;;
17193;SDS011;8713;48.388;10.928;2022-07-19T12:46:28;4.05;;;2.55;;
17193;SDS011;8713;48.388;10.928;2022-07-19T12:47:37;6.72;;;2.83;;
17193;SDS011;8713;48.388;10.928;2022-07-19T12:48:47;5.80;;;2.83;;
17193;SDS011;8713;48.388;10.928;2022-07-19T12:49:56;4.30;;;2.83;;
17193;SDS011;8713;48.388;10.928;2022-07-19T12:51:06;7.03;;;2.50;;
17193;SDS011;8713;48.388;10.928;2022-07-19T12:52:16;4.82;;;2.60;;
17193;SDS011;8713;48.388;10.928;2022-07-19T12:53:25;4.50;;;2.70;;
17193;SDS011;8713;48.388;10.928;2022-07-19T12:54:34;6.80;;;2.97;;
17193;SDS011;8713;48.388;10.928;2022-07-19T12:55:44;3.58;;;2.50;;
17193;SDS011;8713;48.388;10.928;2022-07-19T12:56:54;8.35;;;2.90;;
17193;SDS011;8713;48.388;10.928;2022-07-19T12:58:04;7.68;;;2.50;;
17193;SDS011;8713;48.388;10.928;2022-07-19T12:59:15;4.85;;;2.60;;
17193;SDS011;8713;48.388;10.928;2022-07-19T13:00:43;3.55;;;2.42;;
17193;SDS011;8713;48.388;10.928;2022-07-19T13:01:53;5.95;;;2.63;;
17193;SDS011;8713;48.388;10.928;2022-07-19T13:03:03;4.05;;;2.22;;
17193;SDS011;8713;48.388;10.928;2022-07-19T13:04:13;6.85;;;2.83;;
17193;SDS011;8713;48.388;10.928;2022-07-19T13:05:23;6.93;;;3.15;;
17193;SDS011;8713;48.388;10.928;2022-07-19T13:06:33;4.40;;;2.92;;
17193;SDS011;8713;48.388;10.928;2022-07-19T13:07:42;7.32;;;3.42;;
17193;SDS011;8713;48.388;10.928;2022-07-19T13:08:52;7.63;;;3.20;;
17193;SDS011;8713;48.388;10.928;2022-07-19T13:10:01;7.40;;;3.30;;
17193;SDS011;8713;48.388;10.928;2022-07-19T13:11:11;5.90;;;3.03;;
17193;SDS011;8713;48.388;10.928;2022-07-19T13:12:21;10.45;;;3.33;;
17193;SDS011;8713;48.388;10.928;2022-07-19T13:13:30;8.98;;;3.47;;
17193;SDS011;8713;48.388;10.928;2022-07-19T13:14:39;4.50;;;3.10;;
17193;SDS011;8713;48.388;10.928;2022-07-19T13:15:49;7.90;;;2.78;;
17193;SDS011;8713;48.388;10.928;2022-07-19T13:16:58;3.85;;;2.75;;
17193;SDS011;8713;48.388;10.928;2022-07-19T13:18:08;6.00;;;2.80;;
17193;SDS011;8713;48.388;10.928;2022-07-19T13:19:18;6.35;;;2.88;;
17193;SDS011;8713;48.388;10.928;2022-07-19T13:20:27;6.38;;;3.25;;
17193;SDS011;8713;48.388;10.928;2022-07-19T13:21:37;5.45;;;3.20;;
17193;SDS011;8713;48.388;10.928;2022-07-19T13:22:46;6.85;;;3.25;;
17193;SDS011;8713;48.388;10.928;2022-07-19T13:23:56;8.60;;;3.00;;
17193;SDS011;8713;48.388;10.928;2022-07-19T13:25:06;6.00;;;3.10;;
17193;SDS011;8713;48.388;10.928;2022-07-19T13:26:17;8.18;;;2.83;;
17193;SDS011;8713;48.388;10.928;2022-07-19T13:27:26;3.70;;;2.80;;
17193;SDS011;8713;48.388;10.928;2022-07-19T13:28:36;7.28;;;3.50;;
17193;SDS011;8713;48.388;10.928;2022-07-19T13:29:45;6.97;;;3.30;;
17193;SDS011;8713;48.388;10.928;2022-07-19T13:30:55;4.13;;;2.83;;
17193;SDS011;8713;48.388;10.928;2022-07-19T13:32:04;6.82;;;2.95;;
17193;SDS011;8713;48.388;10.928;2022-07-19T13:33:15;4.90;;;3.13;;
17193;SDS011;8713;48.388;10.928;2022-07-19T13:34:24;4.70;;;2.33;;
17193;SDS011;8713;48.388;10.928;2022-07-19T13:35:34;3.00;;;2.28;;
17193;SDS011;8713;48.388;10.928;2022-07-19T13:36:44;7.28;;;2.80;;
17193;SDS011;8713;48.388;10.928;2022-07-19T13:37:53;9.77;;;3.45;;
17193;SDS011;8713;48.388;10.928;2022-07-19T13:39:03;7.93;;;3.95;;
17193;SDS011;8713;48.388;10.928;2022-07-19T13:40:12;5.90;;;3.08;;